^^
Station Historical Data
Daily Summary for January 5, 2017 Units:  Metric    English   Both
« Previous Day
Next Day »
Daily Weekly Monthly Yearly Custom
  High: Low: Average:
Temperature: 33.5 °C 23.4 °C 27.9 °C
Dew Point: 13.8 °C 11.2 °C 12.7 °C
Humidity: 53% 26% 40%
Wind Speed: 33.8km/h 0km/h 17.5km/h
Wind Gust: 38.6km/h - -
Wind- - SSW
Pressure: 1004.3 hPa 999.2 hPa -
Precipitation: 0 mm    
Historical Graphs
 
 
Tabular Data for January 5, 2017
Time Temperature Dew Point Pressure Wind Wind Speed Wind Gust Humidity Rainfall Rate (Hourly) solar Conditions
00:29 26.6 °C 13.7 °C 1002.9 hPa SSW 16.3 km/h 20.9 km/h 45% 0 mm 0.0 W/m2
00:34 26.4 °C 13.5 °C 1002.9 hPa SSW 16.3 km/h 19.3 km/h 45% 0 mm 0.0 W/m2
01:22 25.6 °C 13.5 °C 1002.9 hPa SSW 13 km/h 17.7 km/h 47% 0 mm 0.0 W/m2
02:29 25.4 °C 12.9 °C 1002.3 hPa SSW 11.1 km/h 12.9 km/h 46% 0 mm 0.0 W/m2
02:34 25.4 °C 13.3 °C 1002.3 hPa SSW 13 km/h 13 km/h 47% 0 mm 0.0 W/m2
03:00 25.4 °C 12.9 °C 1001.9 hPa SSW 9.7 km/h 14.5 km/h 46% 0 mm 0.0 W/m2
03:16 25.4 °C 12.9 °C 1001.9 hPa SSW 13 km/h 16.1 km/h 46% 0 mm 0.0 W/m2
03:31 25.4 °C 12.6 °C 1001.9 hPa SSW 13 km/h 14.5 km/h 45% 0 mm 0.0 W/m2
03:41 25.4 °C 12.9 °C 1002.3 hPa SSW 11.1 km/h 14.5 km/h 46% 0 mm 0.0 W/m2
04:10 25 °C 12.9 °C 1001.9 hPa South 11.1 km/h 16.1 km/h 47% 0 mm 0.0 W/m2
04:25 24.9 °C 12.8 °C 1001.9 hPa South 14.3 km/h 17.7 km/h 47% 0 mm 0.0 W/m2
04:34 24.8 °C 12.7 °C 1001.6 hPa South 13 km/h 14.5 km/h 47% 0 mm 0.0 W/m2
04:45 24.8 °C 12.7 °C 1001.6 hPa South 14.3 km/h 17.7 km/h 47% 0 mm 0.0 W/m2
04:50 24.8 °C 12.7 °C 1001.6 hPa South 13 km/h 14.5 km/h 47% 0 mm 0.0 W/m2
04:55 24.8 °C 12.7 °C 1001.6 hPa South 9.7 km/h 16.1 km/h 47% 0 mm 0.0 W/m2
05:00 24.8 °C 12.7 °C 1001.6 hPa South 11.1 km/h 11.3 km/h 47% 0 mm 0.0 W/m2
05:05 24.8 °C 12.7 °C 1001.6 hPa South 9.7 km/h 16.1 km/h 47% 0 mm 0.0 W/m2
05:15 24.7 °C 13 °C 1001.6 hPa South 9.7 km/h 12.9 km/h 48% 0 mm 0.0 W/m2
05:20 24.6 °C 12.9 °C 1001.9 hPa South 3.2 km/h 11.3 km/h 48% 0 mm 0.0 W/m2
05:25 24.5 °C 13.1 °C 1001.9 hPa Calm     49% 0 mm 0.0 W/m2
05:30 24.3 °C 13.2 °C 1001.9 hPa Calm     50% 0 mm 0.0 W/m2
05:35 24.3 °C 12.9 °C 1001.9 hPa Calm     49% 0 mm 0.0 W/m2
05:41 24.4 °C 12.7 °C 1001.9 hPa South 9.7 km/h 14.5 km/h 48% 0 mm 0.0 W/m2
05:51 25 °C 12.6 °C 1001.9 hPa South 11.1 km/h 19.3 km/h 46% 0 mm 0.0 W/m2
05:56 25.3 °C 12.5 °C 1001.9 hPa South 14.3 km/h 16.1 km/h 45% 0 mm 0.0 W/m2
06:01 25.1 °C 12.7 °C 1001.9 hPa South 9.7 km/h 14.5 km/h 46% 0 mm 5.0 W/m2
06:11 24.4 °C 13 °C 1001.9 hPa SSW 9.7 km/h 14.5 km/h 49% 0 mm 11.0 W/m2
06:21 24.3 °C 12.9 °C 1001.9 hPa SSW 7.9 km/h 14.5 km/h 49% 0 mm 16.0 W/m2
06:36 24.2 °C 13.1 °C 1001.9 hPa SSW 11.1 km/h 11.3 km/h 50% 0 mm 46.0 W/m2
06:41 24.2 °C 13.1 °C 1001.9 hPa SSW 6.4 km/h 11.3 km/h 50% 0 mm 60.0 W/m2
06:53 24.4 °C 13.3 °C 1001.9 hPa South 9.7 km/h 11.3 km/h 50% 0 mm 93.0 W/m2
06:55 24.5 °C 13.4 °C 1002.3 hPa South 11.1 km/h 14.5 km/h 50% 0 mm 111.0 W/m2
07:00 24.7 °C 13.3 °C 1002.3 hPa SSW 9.7 km/h 14.5 km/h 49% 0 mm 132.0 W/m2
07:16 24.9 °C 13.1 °C 1002.3 hPa SSW 7.9 km/h 9.7 km/h 48% 0 mm 174.0 W/m2
07:20 25.3 °C 13.2 °C 1002.3 hPa Calm     47% 0 mm 214.0 W/m2
07:36 25.9 °C 13.1 °C 1002.3 hPa SSW 13 km/h 16.1 km/h 45% 0 mm 271.0 W/m2
08:04 25.8 °C 13 °C 1002.3 hPa SSW 16.3 km/h 19.3 km/h 45% 0 mm 348.0 W/m2
08:12 26 °C 13.1 °C 1002.3 hPa SSW 9.7 km/h 14.5 km/h 45% 0 mm 399.0 W/m2
08:27 26.4 °C 13.2 °C 1002.3 hPa SSW 16.3 km/h 17.7 km/h 44% 0 mm 452.0 W/m2
08:42 26.8 °C 13.2 °C 1002.3 hPa SSW 13 km/h 17.7 km/h 43% 0 mm 503.0 W/m2
08:59 26.9 °C 13.3 °C 1002.3 hPa SSW 14.3 km/h 16.1 km/h 43% 0 mm 533.0 W/m2
09:07 27.6 °C 13.2 °C 1002.3 hPa SSW 9.7 km/h 16.1 km/h 41% 0 mm 582.0 W/m2
09:22 27.7 °C 12.9 °C 1002.3 hPa SSW 14.3 km/h 19.3 km/h 40% 0 mm 633.0 W/m2
09:33 28.1 °C 12.8 °C 1002.3 hPa SSW 13 km/h 17.7 km/h 39% 0 mm 664.0 W/m2
09:43 28.2 °C 12.9 °C 1001.9 hPa SSW 13 km/h 13 km/h 39% 0 mm 696.0 W/m2
09:55 28.6 °C 12.9 °C 1001.9 hPa SSW 13 km/h 19.3 km/h 38% 0 mm 724.0 W/m2
11:44 31.1 °C 12.5 °C 1001.6 hPa SSW 24.1 km/h 25.7 km/h 32% 0 mm 947.0 W/m2
12:04 31.4 °C 12.7 °C 1001.6 hPa SSW 17.7 km/h 29 km/h 32% 0 mm 965.0 W/m2
12:16 31.4 °C 12.2 °C 1001.6 hPa SSW 14.3 km/h 24.1 km/h 31% 0 mm 974.0 W/m2
12:24 32 °C 11.7 °C 1001.2 hPa South 20.9 km/h 22.5 km/h 29% 0 mm 983.0 W/m2
12:34 32.2 °C 11.9 °C 1001.2 hPa SSW 24.1 km/h 27.4 km/h 29% 0 mm 986.0 W/m2
12:44 32.6 °C 12.3 °C 1001.2 hPa SSW 17.7 km/h 25.7 km/h 29% 0 mm 984.0 W/m2
12:59 32.7 °C 11.8 °C 1001.2 hPa SSW 20.9 km/h 29 km/h 28% 0 mm 986.0 W/m2
13:14 32.8 °C 12.4 °C 1001.2 hPa SSW 25.9 km/h 29 km/h 29% 0 mm 984.0 W/m2
13:37 32.8 °C 12.4 °C 1000.9 hPa SSW 25.9 km/h 30.6 km/h 29% 0 mm 981.0 W/m2
13:51 32.6 °C 12.3 °C 1000.9 hPa South 20.9 km/h 30.6 km/h 29% 0 mm 969.0 W/m2
14:06 33 °C 12.1 °C 1000.9 hPa South 22.7 km/h 33.8 km/h 28% 0 mm 954.0 W/m2
14:15 33.1 °C 12.1 °C 1000.6 hPa SSW 22.7 km/h 30.6 km/h 28% 0 mm 944.0 W/m2
14:26 32.7 °C 11.8 °C 1000.6 hPa SW 17.7 km/h 32.2 km/h 28% 0 mm 926.0 W/m2
14:30 33.1 °C 12.1 °C 1000.2 hPa SSW 24.1 km/h 32.2 km/h 28% 0 mm 912.0 W/m2
14:45 33.1 °C 11.6 °C 1000.2 hPa South 28.8 km/h 30.6 km/h 27% 0 mm 888.0 W/m2
14:51 33.1 °C 11.6 °C 1000.2 hPa South 28.8 km/h 30.6 km/h 27% 0 mm 888.0 W/m2
15:08 33.1 °C 11.6 °C 1000.2 hPa South 20.9 km/h 30.6 km/h 27% 0 mm 858.0 W/m2
15:29 33.1 °C 11.6 °C 999.9 hPa South 22.7 km/h 32.2 km/h 27% 0 mm 812.0 W/m2
15:49 33.4 °C 11.9 °C 999.9 hPa SSW 20.9 km/h 29 km/h 27% 0 mm 763.0 W/m2
15:56 33.5 °C 11.4 °C 999.5 hPa South 20.9 km/h 27.4 km/h 26% 0 mm 722.0 W/m2
16:11 33.4 °C 11.9 °C 999.5 hPa SSW 22.7 km/h 30.6 km/h 27% 0 mm 677.0 W/m2
16:21 33.2 °C 11.7 °C 999.5 hPa SSW 16.3 km/h 29 km/h 27% 0 mm 647.0 W/m2
16:41 33.3 °C 11.8 °C 999.5 hPa SSW 24.1 km/h 32.2 km/h 27% 0 mm 603.0 W/m2
16:52 33 °C 11.5 °C 999.2 hPa South 28.8 km/h 33.8 km/h 27% 0 mm 566.0 W/m2
16:56 33.3 °C 11.2 °C 999.2 hPa South 22.7 km/h 35.4 km/h 26% 0 mm 531.0 W/m2
17:11 32.6 °C 11.7 °C 999.2 hPa SW 22.7 km/h 33.8 km/h 28% 0 mm 480.0 W/m2
17:21 32.4 °C 12.1 °C 999.5 hPa SSW 27.4 km/h 37 km/h 29% 0 mm 446.0 W/m2
17:30 32.3 °C 12 °C 999.5 hPa SSW 28.8 km/h 33.8 km/h 29% 0 mm 432.0 W/m2
17:36 32.1 °C 11.8 °C 999.5 hPa SSW 32 km/h 37 km/h 29% 0 mm 392.0 W/m2
17:46 31.8 °C 12.1 °C 999.5 hPa South 24.1 km/h 35.4 km/h 30% 0 mm 357.0 W/m2
17:55 31.8 °C 12.1 °C 999.9 hPa South 20.9 km/h 32.2 km/h 30% 0 mm 343.0 W/m2
18:07 31.6 °C 12.4 °C 999.5 hPa SW 30.6 km/h 33.8 km/h 31% 0 mm 304.0 W/m2
18:18 31.1 °C 12.5 °C 999.9 hPa SSW 27.4 km/h 38.6 km/h 32% 0 mm 271.0 W/m2
18:33 30.7 °C 12.6 °C 1000.2 hPa South 27.4 km/h 35.4 km/h 33% 0 mm 216.0 W/m2
18:41 29.6 °C 12.9 °C 1000.2 hPa SSW 24.1 km/h 37 km/h 36% 0 mm 28.0 W/m2
19:00 28.7 °C 13 °C 1000.9 hPa SSW 28.8 km/h 33.8 km/h 38% 0 mm 26.0 W/m2
19:10 28.2 °C 12.9 °C 1001.2 hPa SW 24.1 km/h 33.8 km/h 39% 0 mm 18.0 W/m2
19:16 28.1 °C 13.2 °C 1001.2 hPa SSW 32 km/h 35.4 km/h 40% 0 mm 18.0 W/m2
19:35 27.6 °C 13.2 °C 1001.2 hPa SW 22.7 km/h 30.6 km/h 41% 0 mm 12.0 W/m2
19:47 27.4 °C 13.4 °C 1001.6 hPa SSW 22.7 km/h 25.7 km/h 42% 0 mm 7.0 W/m2
19:51 27.1 °C 13.4 °C 1001.6 hPa SSW 28.8 km/h 30.6 km/h 43% 0 mm 0.0 W/m2
20:06 26.9 °C 13.3 °C 1001.9 hPa SSW 19.5 km/h 29 km/h 43% 0 mm 0.0 W/m2
20:27 26.6 °C 13.7 °C 1002.3 hPa SSW 20.9 km/h 30.6 km/h 45% 0 mm 0.0 W/m2
20:31 26.4 °C 13.8 °C 1002.6 hPa SSW 22.7 km/h 30.6 km/h 46% 0 mm 0.0 W/m2
20:53 25.9 °C 13.7 °C 1002.9 hPa SSW 33.8 km/h 33.8 km/h 47% 0 mm 0.0 W/m2
21:01 25.4 °C 13.6 °C 1002.9 hPa SSW 25.9 km/h 30.6 km/h 48% 0 mm 0.0 W/m2
21:16 25 °C 13.5 °C 1003.6 hPa SSW 24.1 km/h 30.6 km/h 49% 0 mm 0.0 W/m2
21:26 24.8 °C 13.4 °C 1003.6 hPa SSW 16.3 km/h 25.7 km/h 49% 0 mm 0.0 W/m2
21:46 24.4 °C 13.3 °C 1003.9 hPa SSW 22.7 km/h 29 km/h 50% 0 mm 0.0 W/m2
21:56 24.3 °C 13.2 °C 1003.9 hPa SSW 17.7 km/h 27.4 km/h 50% 0 mm 0.0 W/m2
22:07 24.1 °C 13.3 °C 1003.9 hPa SSW 14.3 km/h 25.7 km/h 51% 0 mm 0.0 W/m2
22:12 23.8 °C 13.4 °C 1003.9 hPa SSW 20.9 km/h 29 km/h 52% 0 mm 0.0 W/m2
22:27 23.5 °C 13.4 °C 1004.3 hPa SSW 17.7 km/h 27.4 km/h 53% 0 mm 0.0 W/m2
22:33 23.4 °C 13.3 °C 1004.3 hPa SSW 24.1 km/h 25.7 km/h 53% 0 mm 0.0 W/m2
Canyon Roadhouse, Fishriver Canyon, Namibia
Compliments of Weather Underground - 2 mb